Cleveland Hopkins International Airport
KCLE : now visible

Airfield :











YOU CAN JOIN US ON...

 
LOGIN :

Register | Disclaimer

   EN    FR    IT 

 









Legend :    VFR   Marginal VFR   IFR   Intensive IFR   Very Intensive IFR
Visi :
Ceiling :
>= 8 km
>= 3000ft
5 to 8 km
1000 to 3000 ft
1500m to 5 km
500 to 1000 ft
800 to 1500m
200 to 500 ft
< 800m
< 200 ft
Symbols :   Thunderstorms  Fog  Heavy snow  Heavy precipitations  Wind > 20 kt






- Airport Elevation : 791 ft
- IATA code : CLE


KCLE - Cleveland Hopkins International

CURRENT METAR :
  • 220417Z 23014G21KT 5SM -RA BR BKN011 OVC017 12/10 A2985 RMK AO2 DZE11RAB11 P0000 T01170100 $

EXPIRED METARs :
  • 220351Z 22017G26KT 6SM -DZ BR BKN015 OVC022 12/09 A2984 RMK AO2 SLP107 P0001 T01170094 $
  • 220251Z 22017G24KT 7SM -DZ BKN017 OVC024 12/09 A2984 RMK AO2 SLP107 P0000 60000 T01170089 50000 $

TAF KCLE
Valid from the 22 at 03:00 until the 23 at 06:00 UTC


220252Z 2203/2306 22020G30KT P6SM VCSH OVC015
FM220800 27015G25KT P6SM OVC015
FM221700 31012G20KT P6SM BKN030



MET'MAP, your aeronautical weather chart ! - Copyright ORBIFLY December 2007 - Disclaimer

ORBIFLY MET'MAP TEAM :

Programming & Development : Alexandra Zaïnal
Concept & Development : Baudouin d'Aumeries
Co-Development & Prog : Marc-Olivier Méhu
Technical & hardware support : Manuel Goepfert

Contact : metmap@orbifly.com




SOURCES & CREDITS :

   NOAA       Earth
Advisory